Time;durP1;ratioP1;P1;durP2;ratioP2;P2;SDS_P1;SDS_P2;PMS_P1;PMS_P2;Temp;Humidity;BMP_temperature;BMP_pressure;BME280_temperature;BME280_humidity;BME280_pressure;Samples;Min_cycle;Max_cycle;Signal;HPM_P1;HPM_P2
2024/01/16 00:00:06;;;;;;;1.38;1.02;;;-2.60;99.90;;;;;;5036315;28;20045;-77
2024/01/16 00:02:33;;;;;;;1.52;0.93;;;-2.60;99.90;;;;;;5038213;28;20399;-78
2024/01/16 00:05:00;;;;;;;2.00;1.05;;;-2.60;99.90;;;;;;5038724;28;20139;-78
2024/01/16 00:07:27;;;;;;;3.33;1.55;;;-2.60;99.90;;;;;;5038699;28;20052;-78
2024/01/16 00:09:54;;;;;;;2.17;1.25;;;-2.70;99.90;;;;;;5020657;28;20052;-78
2024/01/16 00:12:21;;;;;;;1.92;1.17;;;-2.70;99.90;;;;;;5018861;28;20754;-75
2024/01/16 00:14:49;;;;;;;3.35;1.55;;;-2.70;99.90;;;;;;5021053;28;20041;-75
2024/01/16 00:17:16;;;;;;;3.85;1.20;;;-2.70;99.90;;;;;;5038115;28;20923;-75
2024/01/16 00:19:43;;;;;;;1.27;1.00;;;-2.70;99.90;;;;;;5019300;28;20053;-75
2024/01/16 00:22:11;;;;;;;2.30;1.73;;;-2.70;99.90;;;;;;5035544;28;20130;-76
2024/01/16 00:24:38;;;;;;;2.08;1.08;;;-2.70;99.90;;;;;;5036882;28;20053;-75
2024/01/16 00:27:05;;;;;;;1.45;0.93;;;-2.70;99.90;;;;;;5017898;28;20353;-75
2024/01/16 00:29:37;;;;;;;1.02;0.93;;;-2.70;99.90;;;;;;5021479;28;20077;-75
2024/01/16 00:32:04;;;;;;;0.95;0.80;;;-2.60;1.00;;;;;;5039857;28;20062;-75
2024/01/16 00:34:31;;;;;;;2.55;0.90;;;-2.60;99.90;;;;;;5044310;28;20049;-76
2024/01/16 00:36:59;;;;;;;2.67;1.23;;;-2.60;99.90;;;;;;5000364;28;20107;-76
2024/01/16 00:39:26;;;;;;;2.33;1.10;;;-2.70;99.90;;;;;;5017164;28;20541;-76
2024/01/16 00:41:53;;;;;;;1.17;0.90;;;-2.70;99.90;;;;;;5001535;28;20110;-76
2024/01/16 00:44:20;;;;;;;1.20;0.80;;;-2.80;99.90;;;;;;5029102;28;20085;-75
2024/01/16 00:46:47;;;;;;;1.05;0.80;;;-2.80;1.00;;;;;;5036427;28;20056;-76
2024/01/16 00:49:14;;;;;;;1.48;0.90;;;-2.80;1.00;;;;;;5037010;28;20634;-75
2024/01/16 00:51:45;;;;;;;1.25;0.68;;;-2.80;1.00;;;;;;5036481;28;20053;-75
2024/01/16 00:54:12;;;;;;;1.52;1.00;;;-2.70;1.00;;;;;;5036430;28;20694;-76
2024/01/16 00:56:41;;;;;;;1.90;1.13;;;-2.80;1.00;;;;;;5036644;28;20408;-75
2024/01/16 00:59:08;;;;;;;1.70;0.93;;;-2.80;1.00;;;;;;5020922;28;20095;-76
2024/01/16 01:01:37;;;;;;;1.85;0.90;;;-2.70;99.90;;;;;;5037098;28;20057;-76
2024/01/16 01:04:04;;;;;;;1.45;1.10;;;-2.70;1.00;;;;;;5037179;28;20127;-76
2024/01/16 01:06:31;;;;;;;1.40;0.90;;;-2.80;1.00;;;;;;5035348;28;20655;-76
2024/01/16 01:08:59;;;;;;;2.50;1.30;;;-2.80;1.00;;;;;;5036843;28;20057;-76
2024/01/16 01:11:27;;;;;;;1.50;1.10;;;-2.70;1.00;;;;;;5019556;28;20114;-76
2024/01/16 01:13:54;;;;;;;1.20;1.10;;;-2.70;99.90;;;;;;5034459;28;20072;-76
2024/01/16 01:16:21;;;;;;;1.10;0.70;;;-2.70;99.90;;;;;;5016160;28;20439;-76
2024/01/16 01:18:48;;;;;;;1.90;1.00;;;-2.70;1.00;;;;;;5016930;28;20640;-75
2024/01/16 01:21:15;;;;;;;1.50;1.02;;;-2.70;99.90;;;;;;5017091;28;20052;-76
2024/01/16 01:23:43;;;;;;;1.40;0.85;;;-2.70;99.90;;;;;;5018943;28;20102;-75
2024/01/16 01:26:13;;;;;;;1.27;0.82;;;-2.70;1.00;;;;;;5022674;28;20069;-75
2024/01/16 01:28:41;;;;;;;1.63;1.08;;;-2.70;21.90;;;;;;5016408;28;20068;-76
2024/01/16 01:31:10;;;;;;;1.40;0.90;;;-2.60;99.90;;;;;;5020366;28;20129;-75
2024/01/16 01:33:36;;;;;;;1.85;0.98;;;-2.60;99.90;;;;;;5035011;28;20060;-75
2024/01/16 01:36:04;;;;;;;1.95;1.00;;;-2.60;1.00;;;;;;5011847;28;20546;-76
2024/01/16 01:38:31;;;;;;;1.73;1.00;;;-2.50;1.00;;;;;;5032527;28;20057;-77
2024/01/16 01:40:58;;;;;;;1.10;0.90;;;-2.50;99.90;;;;;;5015267;28;20580;-76
2024/01/16 01:43:25;;;;;;;2.05;0.80;;;-2.40;99.90;;;;;;5033899;28;20192;-76
2024/01/16 01:46:10;;;;;;;1.70;1.00;;;-2.30;99.90;;;;;;5023364;28;20132;-75
2024/01/16 01:48:38;;;;;;;1.55;0.75;;;-2.30;99.90;;;;;;5004475;28;20049;-75
2024/01/16 01:51:05;;;;;;;1.98;1.20;;;-2.30;1.00;;;;;;5022458;28;20136;-76
2024/01/16 01:53:33;;;;;;;1.48;1.02;;;-2.30;99.90;;;;;;5020512;28;20056;-75
2024/01/16 01:56:01;;;;;;;1.27;0.95;;;-2.30;14.20;;;;;;5025109;28;20045;-76
2024/01/16 01:58:28;;;;;;;2.30;1.50;;;-2.30;1.00;;;;;;5023883;28;20533;-76
2024/01/16 02:00:56;;;;;;;1.48;0.93;;;-2.30;1.00;;;;;;5042084;28;20084;-76
2024/01/16 02:03:23;;;;;;;1.13;0.95;;;-2.20;1.00;;;;;;5041291;28;20041;-76
2024/01/16 02:05:50;;;;;;;2.05;0.95;;;-2.20;1.00;;;;;;5031113;28;20164;-76
2024/01/16 02:08:18;;;;;;;2.00;0.80;;;-2.20;1.00;;;;;;5020704;28;20601;-76
2024/01/16 02:10:46;;;;;;;1.17;0.68;;;-2.20;30.00;;;;;;5022173;28;20566;-76
2024/01/16 02:13:13;;;;;;;1.35;0.95;;;-2.20;1.00;;;;;;5021168;28;20050;-75
2024/01/16 02:15:41;;;;;;;1.15;0.82;;;-2.20;18.70;;;;;;5015977;28;20041;-75
2024/01/16 02:18:07;;;;;;;1.30;0.90;;;-2.20;1.00;;;;;;5021832;28;20049;-75
2024/01/16 02:20:35;;;;;;;1.40;0.88;;;-2.20;1.00;;;;;;5023016;28;20163;-75
2024/01/16 02:23:03;;;;;;;2.33;1.13;;;-2.20;1.00;;;;;;5022002;28;20553;-75
2024/01/16 02:25:30;;;;;;;2.10;0.82;;;-2.20;1.00;;;;;;5040376;28;20061;-75
2024/01/16 02:28:01;;;;;;;1.33;0.80;;;-2.30;99.90;;;;;;5024564;28;20060;-75
2024/01/16 02:30:28;;;;;;;0.85;0.77;;;-2.30;99.90;;;;;;5038041;28;20052;-75
2024/01/16 02:32:56;;;;;;;0.98;0.70;;;-2.30;99.90;;;;;;5029757;28;20128;-75
2024/01/16 02:35:23;;;;;;;1.73;0.90;;;-2.30;1.00;;;;;;5042274;28;20136;-75
2024/01/16 02:37:50;;;;;;;1.70;0.98;;;-2.30;1.00;;;;;;5024895;28;20518;-75
2024/01/16 02:40:17;;;;;;;1.13;0.90;;;-2.20;99.90;;;;;;5044065;28;20629;-75
2024/01/16 02:42:44;;;;;;;1.25;0.90;;;-2.20;99.90;;;;;;5045261;28;20049;-74
2024/01/16 02:45:11;;;;;;;1.08;0.73;;;-2.30;99.90;;;;;;5043487;28;20052;-75
2024/01/16 02:47:38;;;;;;;1.42;0.98;;;-2.30;99.90;;;;;;5023916;28;20060;-75
2024/01/16 02:50:05;;;;;;;2.10;1.20;;;-2.40;99.90;;;;;;5023605;28;20045;-74
2024/01/16 02:52:32;;;;;;;2.42;1.13;;;-2.50;99.90;;;;;;5029494;28;20089;-74
2024/01/16 02:54:59;;;;;;;1.70;1.13;;;-2.60;99.90;;;;;;5039795;28;20103;-75
2024/01/16 02:57:26;;;;;;;1.58;0.98;;;-2.60;92.60;;;;;;5010672;28;20077;-75
2024/01/16 02:59:53;;;;;;;2.05;1.10;;;-2.60;90.60;;;;;;5011319;28;20118;-75
2024/01/16 03:02:20;;;;;;;1.77;0.88;;;-2.60;99.90;;;;;;5033268;28;20588;-76
2024/01/16 03:04:46;;;;;;;1.58;0.80;;;-2.60;62.40;;;;;;5046500;28;20494;-76
2024/01/16 03:07:16;;;;;;;1.17;0.80;;;-2.60;99.90;;;;;;5047544;28;20114;-76
2024/01/16 03:09:43;;;;;;;1.83;0.80;;;-2.70;99.90;;;;;;5046267;28;20049;-76
2024/01/16 03:12:09;;;;;;;1.58;0.85;;;-2.70;99.90;;;;;;5039850;28;20091;-76
2024/01/16 03:14:38;;;;;;;1.70;0.80;;;-2.70;99.90;;;;;;5041078;28;20065;-75
2024/01/16 03:17:06;;;;;;;1.52;0.93;;;-2.80;99.90;;;;;;5046705;28;20098;-76
2024/01/16 03:19:33;;;;;;;0.80;0.73;;;-2.80;65.70;;;;;;5030506;28;20493;-75
2024/01/16 03:22:00;;;;;;;1.30;0.80;;;-2.80;69.60;;;;;;5045402;28;20061;-76
2024/01/16 03:24:28;;;;;;;1.70;1.10;;;-2.80;70.90;;;;;;5045782;28;20056;-76
2024/01/16 03:26:55;;;;;;;1.42;0.98;;;-2.90;99.90;;;;;;5012446;28;20041;-77
2024/01/16 03:29:22;;;;;;;0.90;0.80;;;-2.90;1.00;;;;;;5047837;28;20057;-75
2024/01/16 03:31:49;;;;;;;0.90;0.80;;;-3.00;53.90;;;;;;5045847;28;20045;-75
2024/01/16 03:34:16;;;;;;;1.05;0.70;;;-3.00;1.00;;;;;;5029585;28;20078;-75
2024/01/16 03:36:43;;;;;;;1.50;0.82;;;-3.00;1.00;;;;;;5046019;28;20060;-76
2024/01/16 03:39:10;;;;;;;1.20;0.80;;;-3.00;37.10;;;;;;5027820;28;20119;-76
2024/01/16 03:41:37;;;;;;;1.55;0.90;;;-2.90;1.00;;;;;;5043958;28;20132;-76
2024/01/16 03:44:04;;;;;;;1.42;1.00;;;-2.90;99.90;;;;;;5045791;28;20128;-76
2024/01/16 03:46:31;;;;;;;1.73;1.13;;;-2.90;99.90;;;;;;5029518;28;20075;-75
2024/01/16 03:48:58;;;;;;;1.33;0.93;;;-2.90;99.40;;;;;;5045423;28;20052;-75
2024/01/16 03:51:25;;;;;;;1.83;0.90;;;-2.90;1.00;;;;;;5043262;28;20126;-76
2024/01/16 03:53:52;;;;;;;1.08;0.85;;;-2.90;82.80;;;;;;5033243;28;20083;-76
2024/01/16 03:56:18;;;;;;;1.52;0.75;;;-2.90;96.70;;;;;;5046349;28;20666;-76
2024/01/16 03:58:45;;;;;;;0.73;0.73;;;-2.90;19.30;;;;;;5024692;28;20053;-75
2024/01/16 04:01:12;;;;;;;2.10;0.73;;;-2.90;1.00;;;;;;5026108;28;20122;-76
2024/01/16 04:03:39;;;;;;;1.15;0.88;;;-2.90;1.00;;;;;;5030206;28;20510;-74
2024/01/16 04:06:19;;;;;;;1.00;0.70;;;-2.90;1.00;;;;;;5047660;28;20067;-75
2024/01/16 04:08:46;;;;;;;1.20;0.80;;;-2.90;1.00;;;;;;5028896;28;20141;-75
2024/01/16 04:11:13;;;;;;;0.93;0.70;;;-2.90;1.00;;;;;;5026168;28;20053;-77
2024/01/16 04:13:41;;;;;;;1.30;0.70;;;-2.90;1.00;;;;;;5031824;28;20233;-74
2024/01/16 04:16:07;;;;;;;1.23;1.08;;;-2.90;1.00;;;;;;5029323;28;20080;-75
2024/01/16 04:18:39;;;;;;;0.88;0.68;;;-2.90;1.00;;;;;;5028213;28;20107;-75
2024/01/16 04:21:06;;;;;;;0.93;0.75;;;-2.90;1.00;;;;;;5044980;28;20476;-74
2024/01/16 04:23:33;;;;;;;1.00;0.73;;;-2.90;1.00;;;;;;5044092;28;20060;-75
2024/01/16 04:26:00;;;;;;;1.13;0.90;;;-2.90;99.90;;;;;;5045811;28;20049;-74
2024/01/16 04:28:27;;;;;;;0.63;0.60;;;-2.90;99.90;;;;;;5045243;28;20487;-74
2024/01/16 04:30:54;;;;;;;0.98;0.65;;;-2.90;99.90;;;;;;5045600;28;20048;-75
2024/01/16 04:33:21;;;;;;;0.68;0.60;;;-2.90;99.90;;;;;;5044755;28;20060;-75
2024/01/16 04:35:48;;;;;;;1.10;0.82;;;-2.90;99.90;;;;;;5008227;28;20636;-75
2024/01/16 04:38:15;;;;;;;0.88;0.55;;;-2.90;99.90;;;;;;5024642;28;20144;-75
2024/01/16 04:40:43;;;;;;;0.60;0.60;;;-2.90;99.90;;;;;;5025429;28;20053;-75
2024/01/16 04:43:10;;;;;;;1.60;0.90;;;-2.90;99.90;;;;;;5041792;28;20451;-75
2024/01/16 04:45:37;;;;;;;0.82;0.68;;;-2.90;99.90;;;;;;5044468;28;20056;-75
2024/01/16 04:48:04;;;;;;;0.68;0.60;;;-2.80;99.90;;;;;;5045060;28;20122;-74
2024/01/16 04:50:31;;;;;;;0.80;0.70;;;-2.80;99.90;;;;;;5028427;28;20470;-74
2024/01/16 04:53:02;;;;;;;1.23;0.80;;;-2.80;99.90;;;;;;5044490;28;20081;-75
2024/01/16 04:55:29;;;;;;;1.02;0.88;;;-2.90;99.90;;;;;;5045442;28;20128;-74
2024/01/16 04:57:56;;;;;;;0.75;0.75;;;-2.90;99.90;;;;;;5044566;28;20049;-74
2024/01/16 05:00:23;;;;;;;0.68;0.68;;;-2.90;99.90;;;;;;5028382;28;20091;-74
2024/01/16 05:02:51;;;;;;;0.95;0.70;;;-2.90;99.90;;;;;;5028623;28;20052;-75
2024/01/16 05:05:18;;;;;;;1.13;0.65;;;-3.00;99.90;;;;;;5044053;28;20487;-74
2024/01/16 05:07:45;;;;;;;1.10;0.85;;;-3.00;99.90;;;;;;5024213;28;20050;-75
2024/01/16 05:10:12;;;;;;;0.50;0.50;;;-3.00;99.90;;;;;;5040240;28;20107;-74
2024/01/16 05:12:40;;;;;;;0.90;0.65;;;-3.10;99.90;;;;;;5044474;28;20053;-74
2024/01/16 05:15:07;;;;;;;1.15;0.80;;;-3.10;99.90;;;;;;5011296;28;20098;-74
2024/01/16 05:17:34;;;;;;;1.00;0.70;;;-3.10;99.90;;;;;;5027536;28;20076;-74
2024/01/16 05:20:03;;;;;;;0.68;0.63;;;-3.10;99.90;;;;;;5042763;28;20055;-74
2024/01/16 05:22:30;;;;;;;1.23;0.75;;;-3.10;99.90;;;;;;5027514;28;20639;-74
2024/01/16 05:24:58;;;;;;;1.10;0.90;;;-3.10;1.00;;;;;;5043668;28;20636;-73
2024/01/16 05:27:25;;;;;;;0.73;0.60;;;-3.10;99.90;;;;;;5027450;28;20146;-74
2024/01/16 05:29:52;;;;;;;0.65;0.50;;;-3.20;99.90;;;;;;5044350;28;20095;-74
2024/01/16 05:32:20;;;;;;;0.95;0.75;;;-3.20;99.90;;;;;;5043260;28;20063;-75
2024/01/16 05:34:48;;;;;;;1.33;0.77;;;-3.20;99.90;;;;;;5043512;28;20051;-74
2024/01/16 05:37:15;;;;;;;0.50;0.50;;;-3.30;99.90;;;;;;5035533;28;20052;-75
2024/01/16 05:39:43;;;;;;;0.85;0.70;;;-3.30;99.90;;;;;;5040961;28;20493;-74
2024/01/16 05:42:11;;;;;;;0.52;0.52;;;-3.30;99.90;;;;;;5043054;28;20052;-75
2024/01/16 05:44:38;;;;;;;1.55;0.73;;;-3.30;6.40;;;;;;5043778;28;20072;-74
2024/01/16 05:47:06;;;;;;;1.27;0.88;;;-3.30;1.00;;;;;;5026714;28;20142;-74
2024/01/16 05:49:33;;;;;;;1.25;0.90;;;-3.30;99.90;;;;;;5038265;28;20117;-73
2024/01/16 05:52:00;;;;;;;1.27;0.70;;;-3.30;1.00;;;;;;5040845;28;20080;-74
2024/01/16 05:54:28;;;;;;;0.85;0.60;;;-3.40;1.00;;;;;;5040581;28;20179;-74
2024/01/16 05:56:55;;;;;;;0.60;0.60;;;-3.30;1.00;;;;;;5040889;28;20044;-74
2024/01/16 05:59:22;;;;;;;1.02;0.90;;;-3.40;1.00;;;;;;5039374;28;20187;-74
2024/01/16 06:01:49;;;;;;;1.70;0.93;;;-3.40;1.00;;;;;;5041170;28;20053;-75
2024/01/16 06:04:16;;;;;;;0.82;0.77;;;-3.40;1.00;;;;;;5034763;28;20045;-75
2024/01/16 06:06:47;;;;;;;1.30;0.60;;;-3.40;1.00;;;;;;5036837;28;21024;-75
2024/01/16 06:09:16;;;;;;;0.90;0.80;;;-3.40;1.00;;;;;;5038396;28;20132;-76
2024/01/16 06:11:43;;;;;;;1.15;0.68;;;-3.40;1.00;;;;;;5039845;28;20053;-75
2024/01/16 06:14:12;;;;;;;0.90;0.63;;;-3.30;1.00;;;;;;5039488;28;20136;-76
2024/01/16 06:16:39;;;;;;;2.58;0.80;;;-3.40;1.00;;;;;;5040708;28;20045;-75
2024/01/16 06:19:07;;;;;;;0.60;0.60;;;-3.40;1.00;;;;;;5023510;28;20134;-74
2024/01/16 06:21:35;;;;;;;0.98;0.80;;;-3.30;1.00;;;;;;5036217;28;20628;-74
2024/01/16 06:24:02;;;;;;;1.98;1.65;;;-3.40;1.00;;;;;;5035126;28;20536;-74
2024/01/16 06:26:29;;;;;;;1.27;1.00;;;-3.40;75.40;;;;;;5034362;28;20052;-74
2024/01/16 06:28:56;;;;;;;1.65;0.80;;;-3.40;17.50;;;;;;5039925;28;20572;-75
2024/01/16 06:31:26;;;;;;;1.23;0.85;;;-3.40;15.70;;;;;;5043089;28;20480;-75
2024/01/16 06:33:53;;;;;;;1.83;1.08;;;-3.30;1.00;;;;;;5043066;28;20541;-74
2024/01/16 06:36:20;;;;;;;1.02;0.80;;;-3.20;6.70;;;;;;5043329;28;20168;-73
2024/01/16 06:38:47;;;;;;;1.58;1.00;;;-3.20;1.00;;;;;;5026293;28;20487;-76
2024/01/16 06:41:16;;;;;;;0.98;0.80;;;-3.10;1.00;;;;;;5043017;28;20163;-73
2024/01/16 06:43:46;;;;;;;0.98;0.75;;;-3.10;1.00;;;;;;5026188;28;20068;-75
2024/01/16 06:46:13;;;;;;;1.55;0.88;;;-3.00;1.00;;;;;;5026824;28;20128;-74
2024/01/16 06:48:40;;;;;;;0.88;0.70;;;-3.00;99.90;;;;;;5042334;28;20148;-73
2024/01/16 06:51:10;;;;;;;0.82;0.70;;;-2.90;1.00;;;;;;5027161;28;20053;-74
2024/01/16 06:53:37;;;;;;;0.82;0.80;;;-2.90;1.00;;;;;;5018065;28;20065;-74
2024/01/16 06:56:08;;;;;;;1.17;0.90;;;-2.90;1.00;;;;;;5026970;28;20068;-74
2024/01/16 06:58:38;;;;;;;1.08;0.82;;;-2.80;1.00;;;;;;5024660;28;20072;-74
2024/01/16 07:01:05;;;;;;;1.25;0.80;;;-2.80;99.90;;;;;;5043387;28;20548;-74
2024/01/16 07:03:32;;;;;;;1.35;0.93;;;-2.80;1.00;;;;;;5039887;28;20604;-74
2024/01/16 07:05:59;;;;;;;0.88;0.60;;;-2.80;1.00;;;;;;5030374;28;20050;-74
2024/01/16 07:08:27;;;;;;;0.85;0.60;;;-2.70;1.00;;;;;;5035688;28;20057;-74
2024/01/16 07:10:56;;;;;;;1.00;0.70;;;-2.70;23.20;;;;;;5008324;28;20054;-74
2024/01/16 07:13:24;;;;;;;0.70;0.60;;;-2.70;98.10;;;;;;5026840;28;20060;-74
2024/01/16 07:15:51;;;;;;;0.85;0.60;;;-2.70;58.80;;;;;;5039876;28;20045;-75
2024/01/16 07:18:18;;;;;;;1.30;0.70;;;-2.70;1.00;;;;;;5039137;28;20046;-74
2024/01/16 07:20:46;;;;;;;1.23;0.70;;;-2.70;1.00;;;;;;5031567;28;20049;-74
2024/01/16 07:23:13;;;;;;;0.73;0.60;;;-2.70;1.00;;;;;;5030667;28;20045;-76
2024/01/16 07:25:41;;;;;;;0.93;0.70;;;-2.70;1.00;;;;;;5023850;28;20063;-74
2024/01/16 07:28:08;;;;;;;0.85;0.65;;;-2.70;1.00;;;;;;5020813;28;20049;-74
2024/01/16 07:30:36;;;;;;;1.55;0.70;;;-2.80;1.00;;;;;;5021390;28;20056;-74
2024/01/16 07:33:04;;;;;;;0.77;0.60;;;-2.70;1.00;;;;;;5022518;28;20059;-74
2024/01/16 07:35:31;;;;;;;0.50;0.50;;;-2.80;99.90;;;;;;5021704;28;20079;-74
2024/01/16 07:37:58;;;;;;;0.60;0.60;;;-2.80;99.90;;;;;;5040939;28;20071;-74
2024/01/16 07:40:27;;;;;;;0.75;0.50;;;-2.80;99.90;;;;;;5024352;28;20071;-74
2024/01/16 07:42:55;;;;;;;1.05;0.70;;;-2.80;99.90;;;;;;5025227;28;20075;-75
2024/01/16 07:45:23;;;;;;;0.82;0.60;;;-2.90;99.90;;;;;;5042149;28;20052;-74
2024/01/16 07:47:50;;;;;;;0.95;0.60;;;-2.90;99.90;;;;;;5042809;28;20044;-74
2024/01/16 07:50:17;;;;;;;0.65;0.60;;;-2.90;99.90;;;;;;5025209;28;20057;-74
2024/01/16 07:52:43;;;;;;;0.80;0.60;;;-3.00;99.90;;;;;;5041492;28;20056;-73
2024/01/16 07:55:10;;;;;;;1.42;1.08;;;-3.00;99.90;;;;;;5043098;28;20679;-73
2024/01/16 07:57:37;;;;;;;0.70;0.50;;;-3.00;99.90;;;;;;5010931;28;20049;-73
2024/01/16 08:00:05;;;;;;;0.77;0.60;;;-3.00;99.90;;;;;;5027239;28;20049;-74
2024/01/16 08:02:33;;;;;;;0.63;0.63;;;-3.00;99.90;;;;;;5007491;28;20709;-74
2024/01/16 08:05:01;;;;;;;0.65;0.60;;;-3.00;99.90;;;;;;5032354;28;20099;-73
2024/01/16 08:07:28;;;;;;;1.15;0.77;;;-3.00;99.90;;;;;;5011101;28;20045;-74
2024/01/16 08:09:54;;;;;;;1.65;0.82;;;-3.00;99.90;;;;;;5023864;28;20503;-74
2024/01/16 08:12:22;;;;;;;0.82;0.65;;;-3.00;99.90;;;;;;5016682;28;20072;-74
2024/01/16 08:14:48;;;;;;;1.25;0.90;;;-3.00;99.90;;;;;;5043104;28;20134;-74
2024/01/16 08:17:15;;;;;;;0.75;0.60;;;-3.00;99.90;;;;;;5010160;28;20612;-74
2024/01/16 08:19:42;;;;;;;0.60;0.60;;;-3.00;99.90;;;;;;5024598;28;20513;-74
2024/01/16 08:22:09;;;;;;;0.55;0.52;;;-3.00;99.90;;;;;;5025338;28;20059;-74
2024/01/16 08:24:37;;;;;;;1.33;0.70;;;-3.00;99.90;;;;;;5022196;28;20057;-74
2024/01/16 08:27:04;;;;;;;0.95;0.63;;;-3.00;99.90;;;;;;5021207;28;20080;-73
2024/01/16 08:29:32;;;;;;;1.00;0.90;;;-3.00;99.90;;;;;;5027451;28;20049;-73
2024/01/16 08:31:59;;;;;;;1.38;0.63;;;-3.00;99.90;;;;;;5030969;28;20133;-75
2024/01/16 08:34:26;;;;;;;1.08;0.70;;;-3.00;99.90;;;;;;5026460;28;20143;-74
2024/01/16 08:36:56;;;;;;;0.90;0.70;;;-3.00;99.90;;;;;;5042560;28;20130;-74
2024/01/16 08:39:24;;;;;;;1.00;0.70;;;-3.00;99.90;;;;;;5010423;28;20060;-74
2024/01/16 08:41:51;;;;;;;1.17;0.80;;;-2.90;99.90;;;;;;5026470;28;20053;-74
2024/01/16 08:44:18;;;;;;;0.63;0.60;;;-2.90;99.90;;;;;;5043310;28;20117;-75
2024/01/16 08:46:46;;;;;;;1.40;0.70;;;-2.80;99.90;;;;;;5042534;28;20063;-75
2024/01/16 08:49:13;;;;;;;1.27;1.17;;;-2.80;99.90;;;;;;5025381;28;20045;-75
2024/01/16 08:51:45;;;;;;;0.80;0.60;;;-2.80;99.90;;;;;;5025650;28;20048;-75
2024/01/16 08:54:12;;;;;;;0.63;0.57;;;-2.70;99.90;;;;;;5035483;28;20316;-75
2024/01/16 08:56:39;;;;;;;1.55;0.95;;;-2.70;99.90;;;;;;5019253;28;20057;-75
2024/01/16 08:59:08;;;;;;;0.98;0.70;;;-2.70;99.90;;;;;;5029423;28;20398;-75
2024/01/16 09:01:35;;;;;;;1.10;0.80;;;-2.70;99.90;;;;;;5025906;28;20124;-74
2024/01/16 09:04:01;;;;;;;0.50;0.50;;;-2.60;99.90;;;;;;5042069;28;20060;-74
2024/01/16 09:06:29;;;;;;;1.48;0.80;;;-2.50;99.90;;;;;;5040150;28;20053;-74
2024/01/16 09:08:57;;;;;;;0.88;0.70;;;-2.40;99.90;;;;;;5040644;28;20079;-74
2024/01/16 09:11:24;;;;;;;0.80;0.60;;;-2.30;99.90;;;;;;5040128;28;20514;-74
2024/01/16 09:13:51;;;;;;;0.63;0.55;;;-2.20;99.90;;;;;;5018289;28;20055;-74
2024/01/16 09:16:18;;;;;;;1.05;0.60;;;-2.20;99.90;;;;;;5019389;28;20130;-74
2024/01/16 09:18:47;;;;;;;0.75;0.70;;;-2.10;99.90;;;;;;5017977;28;20049;-75
2024/01/16 09:21:14;;;;;;;0.70;0.52;;;-2.00;99.90;;;;;;5018276;28;20055;-75
2024/01/16 09:23:42;;;;;;;2.55;0.73;;;-1.90;99.90;;;;;;5015454;28;20163;-74
2024/01/16 09:26:09;;;;;;;0.98;0.60;;;-1.80;99.90;;;;;;5016584;28;20048;-76
2024/01/16 09:28:35;;;;;;;0.68;0.60;;;-1.70;99.90;;;;;;5030079;28;20122;-76
2024/01/16 09:31:06;;;;;;;0.63;0.50;;;-1.50;99.90;;;;;;5036090;28;20057;-75
2024/01/16 09:33:34;;;;;;;0.60;0.60;;;-1.40;99.90;;;;;;5019393;28;20386;-76
2024/01/16 09:36:01;;;;;;;0.57;0.55;;;-1.40;99.90;;;;;;5035974;28;20092;-75
2024/01/16 09:38:31;;;;;;;0.63;0.60;;;-1.30;99.90;;;;;;5001984;28;20053;-76
2024/01/16 09:40:58;;;;;;;0.40;0.40;;;-1.20;99.90;;;;;;5036458;28;20518;-75
2024/01/16 09:43:27;;;;;;;0.65;0.50;;;-1.10;99.90;;;;;;5018824;28;20068;-76
2024/01/16 09:45:55;;;;;;;0.68;0.57;;;-1.00;99.90;;;;;;5017652;28;20147;-76
2024/01/16 09:48:26;;;;;;;0.60;0.50;;;-0.90;99.90;;;;;;5019357;28;20055;-76
2024/01/16 09:50:53;;;;;;;0.73;0.60;;;-0.80;99.90;;;;;;5019904;28;20648;-76
2024/01/16 09:53:21;;;;;;;0.98;0.45;;;-0.70;99.90;;;;;;5033643;28;20091;-76
2024/01/16 09:55:49;;;;;;;0.55;0.50;;;-0.60;99.90;;;;;;5019330;28;20136;-75
2024/01/16 09:58:17;;;;;;;0.90;0.50;;;-0.50;99.90;;;;;;5000592;28;20060;-74
2024/01/16 10:00:46;;;;;;;0.60;0.60;;;-0.50;99.90;;;;;;5018997;28;20053;-81
2024/01/16 10:03:13;;;;;;;0.40;0.40;;;-0.30;99.70;;;;;;5032050;28;20044;-77
2024/01/16 10:05:43;;;;;;;0.40;0.40;;;-0.20;99.90;;;;;;5014856;28;20057;-78
2024/01/16 10:08:10;;;;;;;0.55;0.30;;;-0.10;94.80;;;;;;5014726;28;20049;-77
2024/01/16 10:10:39;;;;;;;0.30;0.30;;;0.00;97.50;;;;;;5021141;28;20063;-77
2024/01/16 10:13:16;;;;;;;0.73;0.65;;;0.10;93.60;;;;;;5008401;28;20075;-77
2024/01/16 10:15:44;;;;;;;0.63;0.50;;;0.20;93.00;;;;;;5019017;28;20111;-76
2024/01/16 10:18:27;;;;;;;0.30;0.30;;;0.30;88.60;;;;;;5019246;28;20045;-77
2024/01/16 10:20:54;;;;;;;0.63;0.60;;;0.40;88.00;;;;;;5038839;28;20049;-76
2024/01/16 10:23:26;;;;;;;2.65;0.55;;;0.50;96.80;;;;;;5038772;28;20093;-76
2024/01/16 10:26:10;;;;;;;0.40;0.40;;;0.60;94.40;;;;;;5038189;28;20124;-77
2024/01/16 10:28:41;;;;;;;1.25;0.50;;;0.70;99.90;;;;;;5020620;28;20783;-77
2024/01/16 10:31:09;;;;;;;0.50;0.47;;;0.80;99.90;;;;;;5025266;28;20056;-77
2024/01/16 10:33:39;;;;;;;0.40;0.40;;;0.90;99.90;;;;;;5022924;28;20132;-77
2024/01/16 10:36:12;;;;;;;0.98;0.45;;;1.00;99.90;;;;;;5006616;28;20060;-78
2024/01/16 10:38:40;;;;;;;0.40;0.40;;;1.10;99.90;;;;;;5022714;28;20057;-78
2024/01/16 10:41:14;;;;;;;0.98;0.63;;;1.10;99.90;;;;;;5023971;28;20578;-78
2024/01/16 10:43:42;;;;;;;1.75;0.90;;;1.20;99.90;;;;;;5037102;28;20053;-77
2024/01/16 10:46:11;;;;;;;1.73;0.70;;;1.30;99.90;;;;;;5005514;28;20049;-78
2024/01/16 10:48:39;;;;;;;1.13;0.85;;;1.40;99.90;;;;;;5037907;28;20049;-77
2024/01/16 10:51:08;;;;;;;1.33;0.90;;;1.50;99.90;;;;;;5005264;28;20045;-77
2024/01/16 10:53:36;;;;;;;2.13;1.08;;;1.50;99.90;;;;;;5004066;28;20071;-78
2024/01/16 10:56:04;;;;;;;0.45;0.45;;;1.60;99.90;;;;;;5031754;28;20060;-78
2024/01/16 10:58:31;;;;;;;0.80;0.57;;;1.60;99.90;;;;;;5002205;28;20144;-78
2024/01/16 11:01:04;;;;;;;1.77;0.50;;;1.70;99.90;;;;;;5021837;28;20630;-77
2024/01/16 11:03:43;;;;;;;0.65;0.50;;;1.80;99.90;;;;;;5021980;28;20095;-77
2024/01/16 11:06:09;;;;;;;0.88;0.60;;;1.80;99.90;;;;;;5038899;28;20138;-76
2024/01/16 11:08:37;;;;;;;0.50;0.50;;;1.90;99.90;;;;;;5020399;28;20532;-77
2024/01/16 11:11:04;;;;;;;0.47;0.45;;;1.90;99.90;;;;;;5021655;28;20454;-77
2024/01/16 11:13:35;;;;;;;1.08;0.70;;;2.00;99.90;;;;;;5008479;28;20049;-77
2024/01/16 11:16:04;;;;;;;1.17;0.73;;;2.10;1.00;;;;;;5012136;28;20235;-77
2024/01/16 11:18:34;;;;;;;0.77;0.50;;;2.20;1.00;;;;;;5024729;28;20114;-77
2024/01/16 11:21:07;;;;;;;1.27;0.60;;;2.30;1.00;;;;;;5025482;28;20167;-77
2024/01/16 11:23:39;;;;;;;0.93;0.85;;;2.40;1.00;;;;;;5025037;28;20053;-76
2024/01/16 11:26:37;;;;;;;0.80;0.50;;;2.50;1.00;;;;;;5025341;28;20063;-76
2024/01/16 11:29:26;;;;;;;0.88;0.63;;;2.70;72.10;;;;;;5016147;28;20236;-77
2024/01/16 11:31:56;;;;;;;0.60;0.50;;;2.80;97.70;;;;;;5045544;28;20226;-77
2024/01/16 11:34:49;;;;;;;1.30;0.70;;;2.90;99.90;;;;;;5041462;28;20139;-76
2024/01/16 11:37:18;;;;;;;0.52;0.50;;;2.90;99.90;;;;;;5041820;28;20151;-77
2024/01/16 11:39:45;;;;;;;0.50;0.43;;;3.00;99.90;;;;;;5025952;28;20132;-76
2024/01/16 11:42:11;;;;;;;0.43;0.40;;;3.10;99.90;;;;;;5025644;28;20080;-77
2024/01/16 11:44:53;;;;;;;1.83;0.60;;;3.20;99.90;;;;;;5023894;28;20525;-76
2024/01/16 11:47:22;;;;;;;2.83;0.70;;;3.20;91.40;;;;;;5026161;28;20533;-76
2024/01/16 11:49:51;;;;;;;1.55;0.63;;;3.20;96.80;;;;;;5011128;28;20324;-76
2024/01/16 11:52:45;;;;;;;0.93;0.77;;;3.30;1.00;;;;;;5010793;28;20049;-75
2024/01/16 11:55:27;;;;;;;0.82;0.50;;;3.40;1.00;;;;;;5041242;28;20041;-75
2024/01/16 11:58:15;;;;;;;1.58;0.95;;;3.50;1.00;;;;;;5026554;28;20052;-75
2024/01/16 12:00:43;;;;;;;0.65;0.63;;;3.50;77.10;;;;;;5043546;28;20110;-75
2024/01/16 12:03:10;;;;;;;0.90;0.70;;;3.60;1.00;;;;;;5006900;28;20663;-75
2024/01/16 12:05:37;;;;;;;1.17;0.73;;;3.60;1.00;;;;;;5022432;28;20045;-75
2024/01/16 12:08:06;;;;;;;1.13;0.85;;;3.70;47.00;;;;;;5023278;28;20097;-74
2024/01/16 12:10:33;;;;;;;0.77;0.68;;;3.80;29.50;;;;;;5025565;28;20056;-74
2024/01/16 12:13:00;;;;;;;1.33;0.75;;;3.90;77.50;;;;;;5042747;28;20056;-75
2024/01/16 12:15:31;;;;;;;1.52;0.77;;;4.00;99.90;;;;;;5011886;28;20048;-75
2024/01/16 12:17:59;;;;;;;1.08;0.50;;;4.10;99.90;;;;;;5027388;28;20122;-74
2024/01/16 12:20:31;;;;;;;0.60;0.55;;;4.30;99.90;;;;;;5008641;28;20072;-74
2024/01/16 12:23:06;;;;;;;0.85;0.60;;;4.40;99.90;;;;;;5005668;28;20428;-75
2024/01/16 12:25:35;;;;;;;1.27;0.80;;;4.60;1.00;;;;;;5006513;28;20740;-75
2024/01/16 12:28:21;;;;;;;1.20;0.93;;;4.80;1.00;;;;;;5024864;28;20497;-77
2024/01/16 12:30:59;;;;;;;1.17;0.82;;;5.00;99.90;;;;;;5008934;28;20235;-76
2024/01/16 12:33:27;;;;;;;1.13;0.80;;;5.10;99.90;;;;;;5021747;28;20055;-76
2024/01/16 12:36:02;;;;;;;0.77;0.55;;;5.30;99.90;;;;;;5040435;28;20111;-77
2024/01/16 12:38:30;;;;;;;0.93;0.70;;;5.50;99.90;;;;;;5021763;28;20063;-76
2024/01/16 12:40:58;;;;;;;1.30;0.90;;;5.60;52.00;;;;;;5022425;28;20052;-77
2024/01/16 12:43:25;;;;;;;2.30;0.77;;;5.80;1.00;;;;;;5031215;28;20092;-78
2024/01/16 12:45:56;;;;;;;2.40;0.75;;;6.00;99.90;;;;;;5030955;28;20049;-77
2024/01/16 12:48:24;;;;;;;1.10;0.80;;;6.20;1.00;;;;;;5018458;28;20049;-76
2024/01/16 12:51:00;;;;;;;0.90;0.60;;;6.40;1.00;;;;;;5007452;28;20132;-76
2024/01/16 12:53:27;;;;;;;0.75;0.55;;;6.60;99.90;;;;;;5039102;28;20056;-76
2024/01/16 12:55:59;;;;;;;1.05;0.47;;;6.80;1.00;;;;;;5018526;28;20048;-76
2024/01/16 12:58:40;;;;;;;1.03;0.60;;;6.90;18.20;;;;;;5034569;28;20176;-76